sensor_id;sensor_type;location;lat;lon;timestamp;P1;durP1;ratioP1;P2;durP2;ratioP2
23474;SDS011;11910;52.086;21.066;2023-10-08T00:00:24;11.85;;;5.10;;
23474;SDS011;11910;52.086;21.066;2023-10-08T00:03:09;12.30;;;5.75;;
23474;SDS011;11910;52.086;21.066;2023-10-08T00:05:37;13.73;;;5.75;;
23474;SDS011;11910;52.086;21.066;2023-10-08T00:08:04;12.77;;;5.90;;
23474;SDS011;11910;52.086;21.066;2023-10-08T00:10:34;14.05;;;6.32;;
23474;SDS011;11910;52.086;21.066;2023-10-08T00:13:06;12.73;;;6.72;;
23474;SDS011;11910;52.086;21.066;2023-10-08T00:15:34;15.90;;;6.88;;
23474;SDS011;11910;52.086;21.066;2023-10-08T00:18:01;12.38;;;7.38;;
23474;SDS011;11910;52.086;21.066;2023-10-08T00:20:30;12.75;;;7.05;;
23474;SDS011;11910;52.086;21.066;2023-10-08T00:23:07;12.20;;;7.20;;
23474;SDS011;11910;52.086;21.066;2023-10-08T00:25:35;13.40;;;7.13;;
23474;SDS011;11910;52.086;21.066;2023-10-08T00:28:06;12.80;;;7.40;;
23474;SDS011;11910;52.086;21.066;2023-10-08T00:30:37;13.90;;;7.53;;
23474;SDS011;11910;52.086;21.066;2023-10-08T00:33:04;11.15;;;7.25;;
23474;SDS011;11910;52.086;21.066;2023-10-08T00:35:30;18.90;;;7.93;;
23474;SDS011;11910;52.086;21.066;2023-10-08T00:37:55;13.68;;;7.40;;
23474;SDS011;11910;52.086;21.066;2023-10-08T00:40:25;14.85;;;6.82;;
23474;SDS011;11910;52.086;21.066;2023-10-08T00:43:01;13.10;;;6.75;;
23474;SDS011;11910;52.086;21.066;2023-10-08T00:45:36;14.02;;;6.93;;
23474;SDS011;11910;52.086;21.066;2023-10-08T00:48:07;11.98;;;6.50;;
23474;SDS011;11910;52.086;21.066;2023-10-08T00:50:35;13.50;;;7.10;;
23474;SDS011;11910;52.086;21.066;2023-10-08T00:53:07;10.23;;;6.28;;
23474;SDS011;11910;52.086;21.066;2023-10-08T00:55:55;11.27;;;6.65;;
23474;SDS011;11910;52.086;21.066;2023-10-08T00:58:29;13.52;;;6.78;;
23474;SDS011;11910;52.086;21.066;2023-10-08T01:00:59;13.82;;;6.30;;
23474;SDS011;11910;52.086;21.066;2023-10-08T01:03:28;10.60;;;5.88;;
23474;SDS011;11910;52.086;21.066;2023-10-08T01:05:54;15.18;;;6.07;;
23474;SDS011;11910;52.086;21.066;2023-10-08T01:08:22;10.48;;;5.43;;
23474;SDS011;11910;52.086;21.066;2023-10-08T01:11:20;11.73;;;5.70;;
23474;SDS011;11910;52.086;21.066;2023-10-08T01:14:07;10.70;;;5.75;;
23474;SDS011;11910;52.086;21.066;2023-10-08T01:16:32;10.65;;;5.40;;
23474;SDS011;11910;52.086;21.066;2023-10-08T01:18:59;10.50;;;5.88;;
23474;SDS011;11910;52.086;21.066;2023-10-08T01:21:29;12.40;;;5.38;;
23474;SDS011;11910;52.086;21.066;2023-10-08T01:23:59;11.88;;;5.63;;
23474;SDS011;11910;52.086;21.066;2023-10-08T01:26:31;13.18;;;6.05;;
23474;SDS011;11910;52.086;21.066;2023-10-08T01:28:58;10.88;;;5.95;;
23474;SDS011;11910;52.086;21.066;2023-10-08T01:31:29;12.02;;;5.60;;
23474;SDS011;11910;52.086;21.066;2023-10-08T01:33:54;10.27;;;5.22;;
23474;SDS011;11910;52.086;21.066;2023-10-08T01:36:22;12.02;;;5.00;;
23474;SDS011;11910;52.086;21.066;2023-10-08T01:38:50;11.57;;;4.85;;
23474;SDS011;11910;52.086;21.066;2023-10-08T01:41:16;10.27;;;4.88;;
23474;SDS011;11910;52.086;21.066;2023-10-08T01:43:47;10.17;;;4.77;;
23474;SDS011;11910;52.086;21.066;2023-10-08T01:46:14;10.35;;;4.97;;
23474;SDS011;11910;52.086;21.066;2023-10-08T01:48:41;8.77;;;4.55;;
23474;SDS011;11910;52.086;21.066;2023-10-08T01:51:09;9.18;;;5.20;;
23474;SDS011;11910;52.086;21.066;2023-10-08T01:53:39;10.10;;;5.07;;
23474;SDS011;11910;52.086;21.066;2023-10-08T01:56:06;10.40;;;5.00;;
23474;SDS011;11910;52.086;21.066;2023-10-08T01:58:32;10.88;;;4.88;;
23474;SDS011;11910;52.086;21.066;2023-10-08T02:00:58;12.10;;;5.30;;
23474;SDS011;11910;52.086;21.066;2023-10-08T02:03:25;9.15;;;4.85;;
23474;SDS011;11910;52.086;21.066;2023-10-08T02:05:52;11.00;;;4.72;;
23474;SDS011;11910;52.086;21.066;2023-10-08T02:08:19;9.30;;;5.20;;
23474;SDS011;11910;52.086;21.066;2023-10-08T02:10:45;12.90;;;5.20;;
23474;SDS011;11910;52.086;21.066;2023-10-08T02:13:14;10.55;;;5.30;;
23474;SDS011;11910;52.086;21.066;2023-10-08T02:15:49;10.75;;;4.80;;
23474;SDS011;11910;52.086;21.066;2023-10-08T02:18:18;8.45;;;4.70;;
23474;SDS011;11910;52.086;21.066;2023-10-08T02:20:44;11.48;;;4.93;;
23474;SDS011;11910;52.086;21.066;2023-10-08T02:23:10;10.80;;;5.28;;
23474;SDS011;11910;52.086;21.066;2023-10-08T02:25:37;10.90;;;4.70;;
23474;SDS011;11910;52.086;21.066;2023-10-08T02:28:05;11.70;;;5.07;;
23474;SDS011;11910;52.086;21.066;2023-10-08T02:30:34;10.77;;;4.97;;
23474;SDS011;11910;52.086;21.066;2023-10-08T02:33:01;12.35;;;5.38;;
23474;SDS011;11910;52.086;21.066;2023-10-08T02:35:27;9.80;;;5.55;;
23474;SDS011;11910;52.086;21.066;2023-10-08T02:37:53;12.20;;;5.18;;
23474;SDS011;11910;52.086;21.066;2023-10-08T02:40:20;13.68;;;5.70;;
23474;SDS011;11910;52.086;21.066;2023-10-08T02:42:52;13.80;;;6.40;;
23474;SDS011;11910;52.086;21.066;2023-10-08T02:45:26;14.93;;;6.05;;
23474;SDS011;11910;52.086;21.066;2023-10-08T02:47:53;9.90;;;5.90;;
23474;SDS011;11910;52.086;21.066;2023-10-08T02:50:19;13.95;;;6.22;;
23474;SDS011;11910;52.086;21.066;2023-10-08T02:52:46;14.57;;;6.57;;
23474;SDS011;11910;52.086;21.066;2023-10-08T02:55:16;16.63;;;6.53;;
23474;SDS011;11910;52.086;21.066;2023-10-08T02:57:53;13.55;;;6.43;;
23474;SDS011;11910;52.086;21.066;2023-10-08T03:00:19;14.35;;;6.05;;
23474;SDS011;11910;52.086;21.066;2023-10-08T03:02:45;18.45;;;7.55;;
23474;SDS011;11910;52.086;21.066;2023-10-08T03:05:12;15.10;;;6.75;;
23474;SDS011;11910;52.086;21.066;2023-10-08T03:07:43;18.43;;;6.53;;
23474;SDS011;11910;52.086;21.066;2023-10-08T03:10:09;19.25;;;6.85;;
23474;SDS011;11910;52.086;21.066;2023-10-08T03:12:47;16.58;;;6.90;;
23474;SDS011;11910;52.086;21.066;2023-10-08T03:15:12;17.17;;;6.78;;
23474;SDS011;11910;52.086;21.066;2023-10-08T03:17:54;13.93;;;7.00;;
23474;SDS011;11910;52.086;21.066;2023-10-08T03:20:33;14.48;;;6.13;;
23474;SDS011;11910;52.086;21.066;2023-10-08T03:23:04;11.05;;;5.95;;
23474;SDS011;11910;52.086;21.066;2023-10-08T03:25:55;14.23;;;6.50;;
23474;SDS011;11910;52.086;21.066;2023-10-08T03:28:42;13.23;;;6.13;;
23474;SDS011;11910;52.086;21.066;2023-10-08T03:31:08;13.18;;;6.10;;
23474;SDS011;11910;52.086;21.066;2023-10-08T03:33:42;11.43;;;6.07;;
23474;SDS011;11910;52.086;21.066;2023-10-08T03:36:14;11.57;;;5.90;;
23474;SDS011;11910;52.086;21.066;2023-10-08T03:38:49;14.57;;;6.18;;
23474;SDS011;11910;52.086;21.066;2023-10-08T03:41:21;13.82;;;6.57;;
23474;SDS011;11910;52.086;21.066;2023-10-08T03:43:52;16.67;;;6.78;;
23474;SDS011;11910;52.086;21.066;2023-10-08T03:46:20;13.70;;;7.00;;
23474;SDS011;11910;52.086;21.066;2023-10-08T03:48:48;13.30;;;7.18;;
23474;SDS011;11910;52.086;21.066;2023-10-08T03:51:16;15.95;;;7.13;;
23474;SDS011;11910;52.086;21.066;2023-10-08T03:53:45;18.13;;;7.18;;
23474;SDS011;11910;52.086;21.066;2023-10-08T03:56:34;17.08;;;7.38;;
23474;SDS011;11910;52.086;21.066;2023-10-08T03:59:02;17.38;;;7.82;;
23474;SDS011;11910;52.086;21.066;2023-10-08T04:01:43;16.35;;;7.28;;
23474;SDS011;11910;52.086;21.066;2023-10-08T04:04:09;11.27;;;6.80;;
23474;SDS011;11910;52.086;21.066;2023-10-08T04:06:38;13.57;;;6.97;;
23474;SDS011;11910;52.086;21.066;2023-10-08T04:09:12;14.55;;;7.65;;
23474;SDS011;11910;52.086;21.066;2023-10-08T04:11:49;14.95;;;7.15;;
23474;SDS011;11910;52.086;21.066;2023-10-08T04:14:22;14.02;;;6.85;;
23474;SDS011;11910;52.086;21.066;2023-10-08T04:16:49;14.48;;;6.50;;
23474;SDS011;11910;52.086;21.066;2023-10-08T04:19:19;11.93;;;6.22;;
23474;SDS011;11910;52.086;21.066;2023-10-08T04:21:46;16.13;;;6.03;;
23474;SDS011;11910;52.086;21.066;2023-10-08T04:24:19;13.45;;;6.32;;
23474;SDS011;11910;52.086;21.066;2023-10-08T04:26:59;15.02;;;6.18;;
23474;SDS011;11910;52.086;21.066;2023-10-08T04:29:30;13.48;;;5.60;;
23474;SDS011;11910;52.086;21.066;2023-10-08T04:31:58;10.93;;;5.72;;
23474;SDS011;11910;52.086;21.066;2023-10-08T04:34:33;12.45;;;4.95;;
23474;SDS011;11910;52.086;21.066;2023-10-08T04:37:01;8.63;;;3.60;;
23474;SDS011;11910;52.086;21.066;2023-10-08T04:39:29;8.40;;;3.63;;
23474;SDS011;11910;52.086;21.066;2023-10-08T04:41:59;9.90;;;3.63;;
23474;SDS011;11910;52.086;21.066;2023-10-08T04:44:32;6.13;;;2.75;;
23474;SDS011;11910;52.086;21.066;2023-10-08T04:46:57;6.45;;;2.38;;
23474;SDS011;11910;52.086;21.066;2023-10-08T04:49:29;5.63;;;2.20;;
23474;SDS011;11910;52.086;21.066;2023-10-08T04:51:59;7.00;;;2.13;;
23474;SDS011;11910;52.086;21.066;2023-10-08T04:54:39;4.32;;;2.08;;
23474;SDS011;11910;52.086;21.066;2023-10-08T04:57:16;4.55;;;1.85;;
23474;SDS011;11910;52.086;21.066;2023-10-08T04:59:42;7.05;;;1.80;;
23474;SDS011;11910;52.086;21.066;2023-10-08T05:02:08;4.18;;;2.17;;
23474;SDS011;11910;52.086;21.066;2023-10-08T05:04:41;4.15;;;2.13;;
23474;SDS011;11910;52.086;21.066;2023-10-08T05:07:25;3.30;;;1.63;;
23474;SDS011;11910;52.086;21.066;2023-10-08T05:10:25;3.25;;;1.70;;
23474;SDS011;11910;52.086;21.066;2023-10-08T05:12:52;4.28;;;2.00;;
23474;SDS011;11910;52.086;21.066;2023-10-08T05:15:30;4.00;;;1.60;;
23474;SDS011;11910;52.086;21.066;2023-10-08T05:18:04;3.15;;;1.50;;
23474;SDS011;11910;52.086;21.066;2023-10-08T05:20:38;3.38;;;1.52;;
23474;SDS011;11910;52.086;21.066;2023-10-08T05:23:13;3.53;;;1.52;;
23474;SDS011;11910;52.086;21.066;2023-10-08T05:25:49;4.05;;;1.30;;
23474;SDS011;11910;52.086;21.066;2023-10-08T05:28:26;3.97;;;1.27;;
23474;SDS011;11910;52.086;21.066;2023-10-08T05:30:54;3.38;;;1.40;;
23474;SDS011;11910;52.086;21.066;2023-10-08T05:33:36;1.58;;;1.17;;
23474;SDS011;11910;52.086;21.066;2023-10-08T05:36:11;2.75;;;1.20;;
23474;SDS011;11910;52.086;21.066;2023-10-08T05:38:43;3.97;;;1.40;;
23474;SDS011;11910;52.086;21.066;2023-10-08T05:44:04;2.22;;;1.35;;
23474;SDS011;11910;52.086;21.066;2023-10-08T05:46:45;1.98;;;1.10;;
23474;SDS011;11910;52.086;21.066;2023-10-08T05:49:36;3.78;;;1.50;;
23474;SDS011;11910;52.086;21.066;2023-10-08T05:52:19;5.32;;;1.70;;
23474;SDS011;11910;52.086;21.066;2023-10-08T05:55:02;2.88;;;1.20;;
23474;SDS011;11910;52.086;21.066;2023-10-08T05:57:43;2.25;;;1.25;;
23474;SDS011;11910;52.086;21.066;2023-10-08T06:00:11;3.92;;;1.30;;
23474;SDS011;11910;52.086;21.066;2023-10-08T06:02:40;4.50;;;1.50;;
23474;SDS011;11910;52.086;21.066;2023-10-08T06:05:10;4.53;;;1.35;;
23474;SDS011;11910;52.086;21.066;2023-10-08T06:07:48;3.92;;;1.30;;
23474;SDS011;11910;52.086;21.066;2023-10-08T06:13:00;3.72;;;1.20;;
23474;SDS011;11910;52.086;21.066;2023-10-08T06:15:43;3.13;;;1.10;;
23474;SDS011;11910;52.086;21.066;2023-10-08T06:18:20;4.22;;;1.00;;
23474;SDS011;11910;52.086;21.066;2023-10-08T06:20:53;4.32;;;1.20;;
23474;SDS011;11910;52.086;21.066;2023-10-08T06:23:20;4.88;;;1.60;;
23474;SDS011;11910;52.086;21.066;2023-10-08T06:25:48;2.50;;;1.00;;
23474;SDS011;11910;52.086;21.066;2023-10-08T06:28:33;5.28;;;1.20;;
23474;SDS011;11910;52.086;21.066;2023-10-08T06:31:02;2.90;;;1.27;;
23474;SDS011;11910;52.086;21.066;2023-10-08T06:33:39;3.80;;;1.15;;
23474;SDS011;11910;52.086;21.066;2023-10-08T06:36:06;2.15;;;1.30;;
23474;SDS011;11910;52.086;21.066;2023-10-08T06:38:37;2.08;;;0.90;;
23474;SDS011;11910;52.086;21.066;2023-10-08T06:41:08;1.30;;;0.90;;
23474;SDS011;11910;52.086;21.066;2023-10-08T06:43:48;1.70;;;0.93;;
23474;SDS011;11910;52.086;21.066;2023-10-08T06:46:39;5.38;;;1.20;;
23474;SDS011;11910;52.086;21.066;2023-10-08T06:49:06;1.98;;;1.00;;
23474;SDS011;11910;52.086;21.066;2023-10-08T06:51:37;4.55;;;1.73;;
23474;SDS011;11910;52.086;21.066;2023-10-08T06:54:03;2.65;;;1.05;;
23474;SDS011;11910;52.086;21.066;2023-10-08T06:56:29;1.48;;;1.08;;
23474;SDS011;11910;52.086;21.066;2023-10-08T06:58:56;2.95;;;1.23;;
23474;SDS011;11910;52.086;21.066;2023-10-08T07:01:24;3.25;;;1.13;;
23474;SDS011;11910;52.086;21.066;2023-10-08T07:03:50;3.60;;;1.13;;
23474;SDS011;11910;52.086;21.066;2023-10-08T07:06:17;3.30;;;1.05;;
23474;SDS011;11910;52.086;21.066;2023-10-08T07:08:56;2.40;;;0.98;;
23474;SDS011;11910;52.086;21.066;2023-10-08T07:11:24;1.67;;;0.82;;
23474;SDS011;11910;52.086;21.066;2023-10-08T07:13:54;1.75;;;0.82;;
23474;SDS011;11910;52.086;21.066;2023-10-08T07:16:21;5.75;;;1.58;;
23474;SDS011;11910;52.086;21.066;2023-10-08T07:18:46;3.10;;;0.90;;
23474;SDS011;11910;52.086;21.066;2023-10-08T07:21:18;1.92;;;1.00;;
23474;SDS011;11910;52.086;21.066;2023-10-08T07:23:54;2.35;;;1.10;;
23474;SDS011;11910;52.086;21.066;2023-10-08T07:26:27;1.58;;;0.70;;
23474;SDS011;11910;52.086;21.066;2023-10-08T07:29:03;3.97;;;0.90;;
23474;SDS011;11910;52.086;21.066;2023-10-08T07:31:33;1.90;;;0.80;;
23474;SDS011;11910;52.086;21.066;2023-10-08T07:34:01;3.28;;;0.90;;
23474;SDS011;11910;52.086;21.066;2023-10-08T07:36:46;1.50;;;0.98;;
23474;SDS011;11910;52.086;21.066;2023-10-08T07:39:14;1.98;;;0.85;;
23474;SDS011;11910;52.086;21.066;2023-10-08T07:42:04;2.90;;;0.85;;
23474;SDS011;11910;52.086;21.066;2023-10-08T07:44:30;2.20;;;0.90;;
23474;SDS011;11910;52.086;21.066;2023-10-08T07:46:56;2.53;;;0.80;;
23474;SDS011;11910;52.086;21.066;2023-10-08T07:49:25;3.28;;;1.05;;
23474;SDS011;11910;52.086;21.066;2023-10-08T07:51:55;3.40;;;1.10;;
23474;SDS011;11910;52.086;21.066;2023-10-08T07:54:23;2.75;;;0.80;;
23474;SDS011;11910;52.086;21.066;2023-10-08T07:56:53;4.07;;;1.25;;
23474;SDS011;11910;52.086;21.066;2023-10-08T07:59:41;1.90;;;0.80;;
23474;SDS011;11910;52.086;21.066;2023-10-08T08:02:07;1.45;;;0.70;;
23474;SDS011;11910;52.086;21.066;2023-10-08T08:04:40;2.50;;;0.80;;
23474;SDS011;11910;52.086;21.066;2023-10-08T08:07:10;1.02;;;0.70;;
23474;SDS011;11910;52.086;21.066;2023-10-08T08:09:44;2.03;;;0.93;;
23474;SDS011;11910;52.086;21.066;2023-10-08T08:14:41;1.85;;;0.73;;
23474;SDS011;11910;52.086;21.066;2023-10-08T08:17:08;1.95;;;0.70;;
23474;SDS011;11910;52.086;21.066;2023-10-08T08:22:06;1.95;;;1.00;;
23474;SDS011;11910;52.086;21.066;2023-10-08T08:24:31;3.88;;;0.98;;
23474;SDS011;11910;52.086;21.066;2023-10-08T08:27:01;1.90;;;0.80;;
23474;SDS011;11910;52.086;21.066;2023-10-08T08:29:36;2.42;;;0.90;;
23474;SDS011;11910;52.086;21.066;2023-10-08T08:32:11;1.70;;;0.90;;
23474;SDS011;11910;52.086;21.066;2023-10-08T08:34:46;3.63;;;0.93;;
23474;SDS011;11910;52.086;21.066;2023-10-08T08:37:15;4.25;;;0.77;;
23474;SDS011;11910;52.086;21.066;2023-10-08T08:39:41;3.20;;;0.88;;
23474;SDS011;11910;52.086;21.066;2023-10-08T08:42:07;1.90;;;1.00;;
23474;SDS011;11910;52.086;21.066;2023-10-08T08:44:37;2.88;;;0.95;;
23474;SDS011;11910;52.086;21.066;2023-10-08T08:47:12;1.33;;;0.80;;
23474;SDS011;11910;52.086;21.066;2023-10-08T08:49:45;1.83;;;0.90;;
23474;SDS011;11910;52.086;21.066;2023-10-08T08:52:10;2.58;;;0.70;;
23474;SDS011;11910;52.086;21.066;2023-10-08T08:54:37;1.63;;;0.55;;
23474;SDS011;11910;52.086;21.066;2023-10-08T08:57:04;2.13;;;0.75;;
23474;SDS011;11910;52.086;21.066;2023-10-08T08:59:31;2.95;;;0.80;;
23474;SDS011;11910;52.086;21.066;2023-10-08T09:02:01;2.30;;;0.88;;
23474;SDS011;11910;52.086;21.066;2023-10-08T09:04:32;3.60;;;0.95;;
23474;SDS011;11910;52.086;21.066;2023-10-08T09:07:01;3.50;;;1.10;;
23474;SDS011;11910;52.086;21.066;2023-10-08T09:09:33;2.50;;;0.77;;
23474;SDS011;11910;52.086;21.066;2023-10-08T09:12:00;2.05;;;0.90;;
23474;SDS011;11910;52.086;21.066;2023-10-08T09:14:27;1.92;;;0.80;;
23474;SDS011;11910;52.086;21.066;2023-10-08T09:16:57;2.97;;;0.80;;
23474;SDS011;11910;52.086;21.066;2023-10-08T09:19:24;1.60;;;0.80;;
23474;SDS011;11910;52.086;21.066;2023-10-08T09:22:07;1.30;;;0.77;;
23474;SDS011;11910;52.086;21.066;2023-10-08T09:24:35;3.03;;;0.82;;
23474;SDS011;11910;52.086;21.066;2023-10-08T09:27:03;2.42;;;1.27;;
23474;SDS011;11910;52.086;21.066;2023-10-08T09:29:29;2.78;;;1.00;;
23474;SDS011;11910;52.086;21.066;2023-10-08T09:31:56;1.80;;;0.80;;
23474;SDS011;11910;52.086;21.066;2023-10-08T09:34:26;1.63;;;0.80;;
23474;SDS011;11910;52.086;21.066;2023-10-08T09:36:54;2.80;;;0.90;;
23474;SDS011;11910;52.086;21.066;2023-10-08T09:39:21;2.28;;;0.90;;
23474;SDS011;11910;52.086;21.066;2023-10-08T09:41:53;2.05;;;1.00;;
23474;SDS011;11910;52.086;21.066;2023-10-08T09:44:23;2.28;;;0.80;;
23474;SDS011;11910;52.086;21.066;2023-10-08T09:47:02;2.80;;;0.93;;
23474;SDS011;11910;52.086;21.066;2023-10-08T09:51:59;3.33;;;1.10;;
23474;SDS011;11910;52.086;21.066;2023-10-08T09:54:28;2.38;;;0.90;;
23474;SDS011;11910;52.086;21.066;2023-10-08T09:57:02;1.35;;;0.90;;
23474;SDS011;11910;52.086;21.066;2023-10-08T09:59:29;1.42;;;0.80;;
23474;SDS011;11910;52.086;21.066;2023-10-08T10:01:55;2.22;;;0.90;;
23474;SDS011;11910;52.086;21.066;2023-10-08T10:04:24;2.15;;;0.90;;
23474;SDS011;11910;52.086;21.066;2023-10-08T10:06:53;1.40;;;1.00;;
23474;SDS011;11910;52.086;21.066;2023-10-08T10:09:23;0.90;;;0.80;;
23474;SDS011;11910;52.086;21.066;2023-10-08T10:11:50;2.40;;;1.02;;
23474;SDS011;11910;52.086;21.066;2023-10-08T10:14:18;1.58;;;0.90;;
23474;SDS011;11910;52.086;21.066;2023-10-08T10:19:39;3.22;;;0.95;;
23474;SDS011;11910;52.086;21.066;2023-10-08T10:22:11;1.67;;;1.00;;
23474;SDS011;11910;52.086;21.066;2023-10-08T10:24:52;2.33;;;1.10;;
23474;SDS011;11910;52.086;21.066;2023-10-08T10:27:18;1.38;;;0.90;;
23474;SDS011;11910;52.086;21.066;2023-10-08T10:29:44;3.60;;;1.10;;
23474;SDS011;11910;52.086;21.066;2023-10-08T10:32:13;1.20;;;1.02;;
23474;SDS011;11910;52.086;21.066;2023-10-08T10:34:40;5.28;;;1.20;;
23474;SDS011;11910;52.086;21.066;2023-10-08T10:37:12;2.63;;;1.33;;
23474;SDS011;11910;52.086;21.066;2023-10-08T10:40:19;3.63;;;1.00;;
23474;SDS011;11910;52.086;21.066;2023-10-08T10:42:37;2.28;;;0.93;;
23474;SDS011;11910;52.086;21.066;2023-10-08T10:45:12;2.00;;;0.90;;
23474;SDS011;11910;52.086;21.066;2023-10-08T10:47:59;2.80;;;0.90;;
23474;SDS011;11910;52.086;21.066;2023-10-08T10:50:38;1.80;;;0.80;;
23474;SDS011;11910;52.086;21.066;2023-10-08T10:53:13;2.00;;;1.08;;
23474;SDS011;11910;52.086;21.066;2023-10-08T10:55:42;2.50;;;1.02;;
23474;SDS011;11910;52.086;21.066;2023-10-08T10:58:23;1.30;;;1.00;;
23474;SDS011;11910;52.086;21.066;2023-10-08T11:00:49;2.10;;;1.20;;
23474;SDS011;11910;52.086;21.066;2023-10-08T11:03:22;1.17;;;0.82;;
23474;SDS011;11910;52.086;21.066;2023-10-08T11:05:53;1.33;;;0.85;;
23474;SDS011;11910;52.086;21.066;2023-10-08T11:08:24;1.80;;;0.90;;
23474;SDS011;11910;52.086;21.066;2023-10-08T11:10:51;2.42;;;0.80;;
23474;SDS011;11910;52.086;21.066;2023-10-08T11:13:21;2.13;;;0.90;;
23474;SDS011;11910;52.086;21.066;2023-10-08T11:15:53;4.13;;;0.85;;
23474;SDS011;11910;52.086;21.066;2023-10-08T11:18:23;1.23;;;0.70;;
23474;SDS011;11910;52.086;21.066;2023-10-08T11:20:52;1.77;;;0.70;;
23474;SDS011;11910;52.086;21.066;2023-10-08T11:26:06;2.33;;;0.90;;
23474;SDS011;11910;52.086;21.066;2023-10-08T11:28:33;3.45;;;0.98;;
23474;SDS011;11910;52.086;21.066;2023-10-08T11:31:26;1.75;;;0.82;;
23474;SDS011;11910;52.086;21.066;2023-10-08T11:33:58;2.85;;;0.80;;
23474;SDS011;11910;52.086;21.066;2023-10-08T11:36:24;2.80;;;0.93;;
23474;SDS011;11910;52.086;21.066;2023-10-08T11:38:57;2.22;;;0.80;;
23474;SDS011;11910;52.086;21.066;2023-10-08T11:41:36;1.63;;;0.80;;
23474;SDS011;11910;52.086;21.066;2023-10-08T11:44:17;3.33;;;0.70;;
23474;SDS011;11910;52.086;21.066;2023-10-08T11:46:44;2.55;;;0.60;;
23474;SDS011;11910;52.086;21.066;2023-10-08T11:49:10;3.38;;;0.90;;
23474;SDS011;11910;52.086;21.066;2023-10-08T11:51:42;0.93;;;0.80;;
23474;SDS011;11910;52.086;21.066;2023-10-08T11:54:09;1.23;;;0.77;;
23474;SDS011;11910;52.086;21.066;2023-10-08T11:56:37;1.85;;;0.57;;
23474;SDS011;11910;52.086;21.066;2023-10-08T11:59:03;2.83;;;0.70;;
23474;SDS011;11910;52.086;21.066;2023-10-08T12:01:36;1.83;;;0.77;;
23474;SDS011;11910;52.086;21.066;2023-10-08T12:04:07;1.20;;;0.80;;
23474;SDS011;11910;52.086;21.066;2023-10-08T12:06:37;2.47;;;0.70;;
23474;SDS011;11910;52.086;21.066;2023-10-08T12:09:04;1.20;;;0.68;;
23474;SDS011;11910;52.086;21.066;2023-10-08T12:11:37;2.33;;;0.80;;
23474;SDS011;11910;52.086;21.066;2023-10-08T12:14:03;3.45;;;0.90;;
23474;SDS011;11910;52.086;21.066;2023-10-08T12:16:28;1.23;;;0.63;;
23474;SDS011;11910;52.086;21.066;2023-10-08T12:18:55;3.13;;;0.90;;
23474;SDS011;11910;52.086;21.066;2023-10-08T12:21:24;1.13;;;0.70;;
23474;SDS011;11910;52.086;21.066;2023-10-08T12:23:51;2.13;;;1.05;;
23474;SDS011;11910;52.086;21.066;2023-10-08T12:26:17;2.55;;;0.75;;
23474;SDS011;11910;52.086;21.066;2023-10-08T12:28:44;3.67;;;1.13;;
23474;SDS011;11910;52.086;21.066;2023-10-08T12:31:13;2.70;;;0.90;;
23474;SDS011;11910;52.086;21.066;2023-10-08T12:33:46;3.35;;;1.05;;
23474;SDS011;11910;52.086;21.066;2023-10-08T12:36:13;4.50;;;1.00;;
23474;SDS011;11910;52.086;21.066;2023-10-08T12:38:41;2.67;;;0.90;;
23474;SDS011;11910;52.086;21.066;2023-10-08T12:41:11;1.85;;;0.93;;
23474;SDS011;11910;52.086;21.066;2023-10-08T12:43:40;0.98;;;0.85;;
23474;SDS011;11910;52.086;21.066;2023-10-08T12:46:07;5.75;;;1.65;;
23474;SDS011;11910;52.086;21.066;2023-10-08T12:48:41;4.28;;;1.30;;
23474;SDS011;11910;52.086;21.066;2023-10-08T12:51:09;4.28;;;1.15;;
23474;SDS011;11910;52.086;21.066;2023-10-08T12:53:36;3.03;;;1.00;;
23474;SDS011;11910;52.086;21.066;2023-10-08T12:56:06;4.38;;;1.00;;
23474;SDS011;11910;52.086;21.066;2023-10-08T12:58:37;2.90;;;1.00;;
23474;SDS011;11910;52.086;21.066;2023-10-08T13:01:12;2.42;;;0.70;;
23474;SDS011;11910;52.086;21.066;2023-10-08T13:03:39;3.45;;;1.00;;
23474;SDS011;11910;52.086;21.066;2023-10-08T13:06:12;1.20;;;0.90;;
23474;SDS011;11910;52.086;21.066;2023-10-08T13:08:53;3.15;;;1.10;;
23474;SDS011;11910;52.086;21.066;2023-10-08T13:11:23;2.05;;;1.02;;
23474;SDS011;11910;52.086;21.066;2023-10-08T13:13:50;1.75;;;0.77;;
23474;SDS011;11910;52.086;21.066;2023-10-08T13:16:17;4.50;;;1.55;;
23474;SDS011;11910;52.086;21.066;2023-10-08T13:18:43;7.32;;;1.30;;
23474;SDS011;11910;52.086;21.066;2023-10-08T13:21:09;4.07;;;0.85;;
23474;SDS011;11910;52.086;21.066;2023-10-08T13:23:35;7.07;;;0.80;;
23474;SDS011;11910;52.086;21.066;2023-10-08T13:26:01;2.30;;;0.93;;
23474;SDS011;11910;52.086;21.066;2023-10-08T13:28:31;2.28;;;1.00;;
23474;SDS011;11910;52.086;21.066;2023-10-08T13:31:01;2.55;;;0.90;;
23474;SDS011;11910;52.086;21.066;2023-10-08T13:33:38;6.28;;;1.08;;
23474;SDS011;11910;52.086;21.066;2023-10-08T13:36:05;1.95;;;0.82;;
23474;SDS011;11910;52.086;21.066;2023-10-08T13:38:35;2.25;;;1.08;;
23474;SDS011;11910;52.086;21.066;2023-10-08T13:41:02;3.97;;;0.98;;
23474;SDS011;11910;52.086;21.066;2023-10-08T13:43:34;2.65;;;1.17;;
23474;SDS011;11910;52.086;21.066;2023-10-08T13:46:04;4.60;;;1.25;;
23474;SDS011;11910;52.086;21.066;2023-10-08T13:48:35;1.88;;;0.95;;
23474;SDS011;11910;52.086;21.066;2023-10-08T13:51:05;2.20;;;1.00;;
23474;SDS011;11910;52.086;21.066;2023-10-08T13:53:38;3.55;;;0.90;;
23474;SDS011;11910;52.086;21.066;2023-10-08T13:58:36;2.80;;;0.85;;
23474;SDS011;11910;52.086;21.066;2023-10-08T14:01:06;3.65;;;0.70;;
23474;SDS011;11910;52.086;21.066;2023-10-08T14:03:50;2.28;;;1.10;;
23474;SDS011;11910;52.086;21.066;2023-10-08T14:06:21;4.22;;;1.00;;
23474;SDS011;11910;52.086;21.066;2023-10-08T14:08:47;2.15;;;0.90;;
23474;SDS011;11910;52.086;21.066;2023-10-08T14:11:22;2.60;;;0.90;;
23474;SDS011;11910;52.086;21.066;2023-10-08T14:13:55;5.10;;;1.23;;
23474;SDS011;11910;52.086;21.066;2023-10-08T14:16:27;1.45;;;1.00;;
23474;SDS011;11910;52.086;21.066;2023-10-08T14:18:54;2.97;;;0.90;;
23474;SDS011;11910;52.086;21.066;2023-10-08T14:21:21;2.47;;;0.98;;
23474;SDS011;11910;52.086;21.066;2023-10-08T14:23:55;2.08;;;0.80;;
23474;SDS011;11910;52.086;21.066;2023-10-08T14:26:22;4.28;;;0.90;;
23474;SDS011;11910;52.086;21.066;2023-10-08T14:28:48;4.05;;;1.10;;
23474;SDS011;11910;52.086;21.066;2023-10-08T14:31:23;2.97;;;0.90;;
23474;SDS011;11910;52.086;21.066;2023-10-08T14:33:51;1.80;;;0.77;;
23474;SDS011;11910;52.086;21.066;2023-10-08T14:36:24;3.22;;;0.85;;
23474;SDS011;11910;52.086;21.066;2023-10-08T14:39:09;2.92;;;0.95;;
23474;SDS011;11910;52.086;21.066;2023-10-08T14:41:54;2.45;;;1.10;;
23474;SDS011;11910;52.086;21.066;2023-10-08T14:44:38;1.85;;;0.93;;
23474;SDS011;11910;52.086;21.066;2023-10-08T14:47:04;5.45;;;0.93;;
23474;SDS011;11910;52.086;21.066;2023-10-08T14:49:31;3.50;;;1.10;;
23474;SDS011;11910;52.086;21.066;2023-10-08T14:51:57;3.28;;;0.90;;
23474;SDS011;11910;52.086;21.066;2023-10-08T14:54:23;2.63;;;1.20;;
23474;SDS011;11910;52.086;21.066;2023-10-08T14:56:49;4.05;;;0.90;;
23474;SDS011;11910;52.086;21.066;2023-10-08T14:59:15;3.00;;;0.95;;
23474;SDS011;11910;52.086;21.066;2023-10-08T15:01:42;3.95;;;0.80;;
23474;SDS011;11910;52.086;21.066;2023-10-08T15:04:09;5.03;;;1.10;;
23474;SDS011;11910;52.086;21.066;2023-10-08T15:06:36;1.90;;;1.00;;
23474;SDS011;11910;52.086;21.066;2023-10-08T15:09:04;3.25;;;1.00;;
23474;SDS011;11910;52.086;21.066;2023-10-08T15:11:32;2.70;;;1.08;;
23474;SDS011;11910;52.086;21.066;2023-10-08T15:14:01;2.85;;;0.90;;